createdAt,value
2019-05-16T00:03:51.590Z,5.00
2019-05-16T00:07:50.691Z,2.73
2019-05-16T00:11:49.273Z,4.17
2019-05-16T00:15:48.221Z,3.23
2019-05-16T00:19:48.424Z,3.77
2019-05-16T00:28:13.371Z,3.73
2019-05-16T00:32:11.951Z,3.03
2019-05-16T00:36:27.659Z,6.53
2019-05-16T00:40:34.650Z,5.33
2019-05-16T00:44:34.852Z,4.07
2019-05-16T00:48:33.396Z,8.47
2019-05-16T00:52:39.653Z,5.40
2019-05-16T00:56:38.146Z,3.30
2019-05-16T01:00:55.175Z,3.23
2019-05-16T01:04:54.320Z,3.63
2019-05-16T01:08:52.939Z,2.70
2019-05-16T01:13:00.982Z,3.83
2019-05-16T01:16:59.548Z,3.10
2019-05-16T01:20:59.925Z,5.10
2019-05-16T01:24:58.648Z,4.03
2019-05-16T01:28:57.697Z,7.10
2019-05-16T01:33:00.962Z,3.93
2019-05-16T01:37:00.221Z,4.07
2019-05-16T01:40:59.623Z,3.43
2019-05-16T01:45:02.952Z,6.50
2019-05-16T01:49:11.279Z,4.27
2019-05-16T01:53:12.937Z,3.53
2019-05-16T01:57:12.025Z,6.57
2019-05-16T02:01:18.737Z,9.93
2019-05-16T02:05:18.861Z,5.50
2019-05-16T02:09:28.019Z,5.77
2019-05-16T02:13:39.060Z,6.70
2019-05-16T02:17:28.926Z,4.57
2019-05-16T02:21:41.805Z,4.43
2019-05-16T02:25:42.701Z,4.13
2019-05-16T02:29:50.726Z,3.40
2019-05-16T02:33:51.446Z,4.97
2019-05-16T02:37:54.701Z,4.80
2019-05-16T02:41:52.041Z,6.30
2019-05-16T02:45:51.970Z,3.93
2019-05-16T02:49:56.542Z,8.17
2019-05-16T02:53:55.126Z,5.27
2019-05-16T02:58:01.765Z,7.87
2019-05-16T03:02:01.104Z,4.60
2019-05-16T03:06:01.326Z,5.97
2019-05-16T03:10:02.404Z,4.53
2019-05-16T03:14:05.825Z,3.13
2019-05-16T03:18:04.781Z,4.50
2019-05-16T03:22:08.036Z,5.13
2019-05-16T03:26:07.484Z,4.93
2019-05-16T03:30:07.255Z,5.90
2019-05-16T03:34:14.869Z,5.03
2019-05-16T03:38:14.921Z,5.90
2019-05-16T03:42:20.435Z,4.13
2019-05-16T03:46:21.504Z,5.37
2019-05-16T03:50:21.849Z,4.43
2019-05-16T03:54:21.197Z,7.07
2019-05-16T03:58:24.140Z,6.67
2019-05-16T04:02:23.793Z,6.33
2019-05-16T04:06:25.489Z,6.67
2019-05-16T04:10:24.049Z,5.37
2019-05-16T04:14:23.939Z,8.30
2019-05-16T04:18:25.409Z,7.17
2019-05-16T04:22:37.211Z,4.97
2019-05-16T04:26:36.187Z,7.73
2019-05-16T04:30:41.327Z,10.23
2019-05-16T04:34:41.797Z,7.97
2019-05-16T04:38:46.499Z,5.07
2019-05-16T04:42:43.338Z,5.10
2019-05-16T04:46:44.057Z,5.60
2019-05-16T04:50:44.753Z,6.77
2019-05-16T04:54:43.306Z,6.20
2019-05-16T04:58:42.076Z,5.90
2019-05-16T05:02:42.017Z,9.13
2019-05-16T05:06:51.272Z,7.17
2019-05-16T05:10:51.341Z,3.50
2019-05-16T05:14:56.573Z,6.30
2019-05-16T05:18:55.419Z,7.53
2019-05-16T05:23:00.436Z,4.90
2019-05-16T05:26:59.770Z,5.77
2019-05-16T05:30:59.799Z,4.60
2019-05-16T05:35:00.823Z,7.07
2019-05-16T05:39:11.229Z,4.37
2019-05-16T05:43:02.707Z,4.23
2019-05-16T05:47:10.704Z,6.43
2019-05-16T05:51:11.040Z,5.47
2019-05-16T05:55:10.572Z,9.07
2019-05-16T05:59:11.481Z,8.87
2019-05-16T06:03:13.812Z,5.27
2019-05-16T06:11:43.970Z,10.57
2019-05-16T06:15:50.836Z,8.03
2019-05-16T06:19:49.695Z,11.30
2019-05-16T06:23:52.269Z,6.23
2019-05-16T06:27:55.769Z,4.03
2019-05-16T06:31:56.234Z,6.27
2019-05-16T06:35:57.138Z,7.07
2019-05-16T06:40:02.841Z,3.37
2019-05-16T06:44:01.578Z,8.40
2019-05-16T06:48:00.782Z,4.43
2019-05-16T06:51:59.865Z,5.30
2019-05-16T06:56:00.127Z,6.20
2019-05-16T07:00:00.668Z,2.10
2019-05-16T07:04:06.007Z,3.83
2019-05-16T07:08:04.659Z,6.07
2019-05-16T07:12:10.438Z,2.73
2019-05-16T07:16:09.667Z,4.93
2019-05-16T07:20:14.507Z,3.13
2019-05-16T07:24:13.459Z,3.87
2019-05-16T07:28:15.172Z,3.93
2019-05-16T07:32:13.505Z,7.73
2019-05-16T07:36:12.161Z,2.93
2019-05-16T07:40:19.028Z,3.30
2019-05-16T07:44:11.367Z,8.20
2019-05-16T07:48:10.693Z,3.00
2019-05-16T07:52:15.573Z,10.37
2019-05-16T07:56:14.379Z,3.83
2019-05-16T08:00:13.156Z,3.43
2019-05-16T08:04:11.730Z,3.27
2019-05-16T08:08:10.593Z,3.93
2019-05-16T08:12:10.522Z,4.40
2019-05-16T08:16:10.751Z,3.60
2019-05-16T08:20:11.218Z,4.07
2019-05-16T08:24:14.962Z,2.80
2019-05-16T08:28:14.267Z,4.17
2019-05-16T08:32:22.922Z,3.30
2019-05-16T08:36:21.591Z,3.37
2019-05-16T08:40:21.767Z,8.80
2019-05-16T08:44:21.533Z,4.27
2019-05-16T08:48:22.906Z,3.80
2019-05-16T08:52:31.719Z,7.70
2019-05-16T08:56:31.461Z,4.47
2019-05-16T09:00:26.694Z,4.60
2019-05-16T09:04:26.006Z,4.33
2019-05-16T09:08:24.702Z,5.47
2019-05-16T09:12:23.302Z,8.30
2019-05-16T09:16:27.899Z,5.13
2019-05-16T09:20:28.258Z,3.17
2019-05-16T09:24:27.345Z,4.00
2019-05-16T09:28:28.319Z,2.50
2019-05-16T09:32:27.873Z,3.73
2019-05-16T09:36:28.083Z,3.37
2019-05-16T09:40:28.477Z,3.27
2019-05-16T09:44:32.843Z,3.97
2019-05-16T09:48:31.456Z,4.83
2019-05-16T09:52:36.852Z,3.37
2019-05-16T09:56:37.377Z,10.70
2019-05-16T10:00:47.079Z,2.30
2019-05-16T10:04:47.714Z,5.33
2019-05-16T10:08:46.504Z,2.87
2019-05-16T10:12:45.613Z,6.80
2019-05-16T10:16:44.242Z,5.63
2019-05-16T10:20:43.156Z,5.97
2019-05-16T10:24:46.808Z,4.50
2019-05-16T10:28:58.124Z,3.63
2019-05-16T10:33:00.865Z,4.67
2019-05-16T10:36:58.760Z,7.25
2019-05-16T10:40:57.319Z,6.78
2019-05-16T10:44:57.778Z,6.00
2019-05-16T10:49:01.307Z,10.87
2019-05-16T10:53:22.524Z,6.00
2019-05-16T10:57:11.076Z,8.10
2019-05-16T11:01:24.247Z,6.03
2019-05-16T11:05:28.764Z,8.15
2019-05-16T11:09:17.565Z,10.30
2019-05-16T11:13:17.141Z,6.13
2019-05-16T11:17:19.014Z,7.10
2019-05-16T11:21:19.138Z,10.43
2019-05-16T11:25:28.110Z,11.27
2019-05-16T11:29:17.744Z,7.30
2019-05-16T11:33:21.542Z,8.83
2019-05-16T11:37:20.103Z,8.07
2019-05-16T11:41:22.725Z,6.80
2019-05-16T11:45:27.198Z,7.57
2019-05-16T11:49:32.678Z,14.13
2019-05-16T11:53:31.273Z,8.83
2019-05-16T11:57:38.107Z,7.37
2019-05-16T12:01:43.009Z,12.20
2019-05-16T12:05:47.990Z,8.43
2019-05-16T12:09:55.146Z,11.47
2019-05-16T12:13:56.695Z,12.90
2019-05-16T12:18:02.031Z,11.83
2019-05-16T12:22:03.186Z,9.17
2019-05-16T12:26:00.937Z,10.20
2019-05-16T12:30:01.727Z,11.00
2019-05-16T12:34:00.304Z,11.00
2019-05-16T12:38:08.031Z,9.33
2019-05-16T12:42:08.538Z,10.67
2019-05-16T12:46:07.560Z,8.03
2019-05-16T12:50:28.988Z,9.63
2019-05-16T12:54:27.750Z,13.80
2019-05-16T12:58:38.098Z,8.37
2019-05-16T13:02:31.564Z,6.30
2019-05-16T13:06:36.948Z,9.73
2019-05-16T13:10:37.960Z,10.23
2019-05-16T13:14:44.493Z,4.70
2019-05-16T13:18:42.703Z,6.50
2019-05-16T13:22:41.578Z,7.53
2019-05-16T13:26:40.174Z,8.07
2019-05-16T13:30:38.873Z,5.57
2019-05-16T13:34:38.030Z,10.43
2019-05-16T13:38:40.758Z,5.33
2019-05-16T13:42:39.547Z,8.20
2019-05-16T13:46:38.259Z,5.17
2019-05-16T13:50:39.687Z,7.40
2019-05-16T13:54:37.020Z,9.43
2019-05-16T13:58:37.415Z,4.70
2019-05-16T14:02:39.041Z,5.13
2019-05-16T14:06:37.602Z,7.37
2019-05-16T14:10:37.461Z,4.70
2019-05-16T14:14:41.963Z,9.13
2019-05-16T14:18:38.485Z,8.27
2019-05-16T14:22:37.187Z,5.83
2019-05-16T14:26:42.145Z,9.80
2019-05-16T14:30:40.838Z,4.03
2019-05-16T14:34:39.500Z,4.63
2019-05-16T14:38:46.630Z,8.50
2019-05-16T14:42:47.983Z,7.43
2019-05-16T14:46:47.516Z,8.67
2019-05-16T14:50:49.302Z,10.80
2019-05-16T14:54:47.933Z,8.33
2019-05-16T14:58:48.575Z,6.53
2019-05-16T15:02:48.139Z,6.70
2019-05-16T15:06:47.445Z,6.30
2019-05-16T15:10:46.869Z,10.93
2019-05-16T15:14:45.926Z,8.13
2019-05-16T15:18:47.199Z,9.63
2019-05-16T15:22:47.280Z,6.27
2019-05-16T15:26:50.922Z,6.53
2019-05-16T15:30:57.485Z,7.23
2019-05-16T15:34:57.163Z,9.23
2019-05-16T15:39:16.977Z,5.47
2019-05-16T15:43:18.023Z,10.73
2019-05-16T15:47:19.985Z,7.70
2019-05-16T15:51:21.188Z,7.30
2019-05-16T15:55:21.667Z,5.10
2019-05-16T15:59:22.686Z,4.90
2019-05-16T16:03:21.211Z,8.93
2019-05-16T16:07:19.859Z,5.23
2019-05-16T16:11:18.442Z,5.07
2019-05-16T16:15:18.282Z,8.03
2019-05-16T16:19:17.473Z,8.30
2019-05-16T16:23:17.717Z,6.37
2019-05-16T16:27:22.710Z,6.57
2019-05-16T16:31:21.351Z,10.33
2019-05-16T16:35:22.994Z,6.60
2019-05-16T16:39:21.787Z,4.50
2019-05-16T16:43:24.157Z,6.23
2019-05-16T16:47:22.254Z,6.17
2019-05-16T16:51:21.294Z,6.00
2019-05-16T16:55:23.072Z,6.07
2019-05-16T16:59:21.719Z,6.70
2019-05-16T17:03:20.276Z,5.50
2019-05-16T17:07:19.926Z,7.90
2019-05-16T17:11:22.993Z,4.73
2019-05-16T17:15:27.220Z,8.80
2019-05-16T17:19:24.395Z,6.30
2019-05-16T17:23:31.494Z,7.30
2019-05-16T17:27:37.505Z,8.30
2019-05-16T17:31:32.820Z,11.70
2019-05-16T17:35:31.439Z,7.33
2019-05-16T17:39:29.927Z,8.63
2019-05-16T17:43:36.276Z,6.83
2019-05-16T17:47:37.025Z,6.47
2019-05-16T17:51:36.724Z,10.50
2019-05-16T17:55:36.863Z,6.73
2019-05-16T17:59:57.461Z,13.00
2019-05-16T18:03:58.343Z,7.47
2019-05-16T18:07:57.702Z,7.93
2019-05-16T18:11:57.422Z,9.70
2019-05-16T18:16:04.641Z,8.87
2019-05-16T18:20:06.712Z,8.87
2019-05-16T18:24:07.020Z,10.50
2019-05-16T18:28:07.872Z,8.87
2019-05-16T18:32:09.970Z,10.90
2019-05-16T18:36:08.511Z,14.60
2019-05-16T18:40:08.236Z,19.03
2019-05-16T18:44:12.270Z,17.20
2019-05-16T18:48:14.866Z,18.27
2019-05-16T18:52:20.520Z,15.87
2019-05-16T18:56:27.211Z,15.67
2019-05-16T19:00:26.749Z,15.43
2019-05-16T19:04:27.469Z,22.77
2019-05-16T19:08:27.288Z,14.90
2019-05-16T19:12:26.361Z,12.10
2019-05-16T19:16:26.261Z,12.83
2019-05-16T19:20:48.978Z,13.70
2019-05-16T19:24:47.593Z,10.87
2019-05-16T19:29:03.666Z,15.63
2019-05-16T19:33:07.672Z,17.10
2019-05-16T19:37:07.021Z,13.07
2019-05-16T19:41:08.173Z,14.17
2019-05-16T19:45:10.294Z,13.90
2019-05-16T19:53:33.361Z,14.10
2019-05-16T19:57:32.401Z,13.43
2019-05-16T20:01:37.555Z,15.20
2019-05-16T20:05:39.924Z,16.90
2019-05-16T20:09:41.957Z,17.53
2019-05-16T20:13:56.747Z,15.77
2019-05-16T20:17:56.123Z,16.20
2019-05-16T20:21:55.035Z,16.70
2019-05-16T20:25:56.982Z,18.47
2019-05-16T20:29:59.235Z,15.77
2019-05-16T20:33:58.644Z,15.83
2019-05-16T20:37:59.288Z,16.20
2019-05-16T20:42:02.192Z,20.43
2019-05-16T20:46:07.084Z,15.53
2019-05-16T20:50:08.487Z,22.27
2019-05-16T20:54:12.226Z,19.57
2019-05-16T20:58:12.222Z,18.80
2019-05-16T21:02:27.491Z,19.40
2019-05-16T21:06:27.126Z,19.70
2019-05-16T21:10:40.898Z,23.47
2019-05-16T21:14:44.025Z,20.87
2019-05-16T21:18:42.610Z,23.40
2019-05-16T21:22:41.164Z,23.93
2019-05-16T21:26:41.325Z,22.93
2019-05-16T21:30:52.079Z,20.23
2019-05-16T21:34:56.606Z,19.30
2019-05-16T21:39:08.592Z,21.97
2019-05-16T21:43:13.136Z,20.13
2019-05-16T21:47:11.663Z,20.13
2019-05-16T21:51:10.287Z,23.47
2019-05-16T21:55:09.493Z,22.27
2019-05-16T21:59:16.358Z,22.37
2019-05-16T22:03:15.311Z,23.63
2019-05-16T22:07:16.791Z,23.80
2019-05-16T22:11:17.790Z,23.63
2019-05-16T22:15:21.728Z,22.50
2019-05-16T22:19:23.307Z,22.33
2019-05-16T22:23:21.953Z,22.67
2019-05-16T22:27:32.426Z,21.80
2019-05-16T22:31:39.179Z,21.47
2019-05-16T22:35:37.758Z,24.20
2019-05-16T22:39:43.633Z,23.93
2019-05-16T22:43:46.545Z,21.23
2019-05-16T22:47:46.536Z,30.77
2019-05-16T22:51:46.280Z,24.13
2019-05-16T22:55:44.829Z,24.63
2019-05-16T22:59:43.404Z,23.60
2019-05-16T23:03:42.056Z,21.40
2019-05-16T23:07:48.438Z,21.73
2019-05-16T23:11:49.517Z,22.83
2019-05-16T23:15:46.759Z,22.10
2019-05-16T23:19:47.476Z,23.10
2019-05-16T23:23:56.989Z,24.10
2019-05-16T23:27:50.582Z,26.53
2019-05-16T23:31:50.912Z,24.77
2019-05-16T23:35:57.514Z,24.33
2019-05-16T23:39:57.899Z,24.63
2019-05-16T23:44:09.074Z,24.80
2019-05-16T23:48:09.521Z,26.40
2019-05-16T23:52:08.413Z,25.47
2019-05-16T23:56:10.422Z,22.40
